Time;durP1;ratioP1;P1;durP2;ratioP2;P2;SDS_P1;SDS_P2;PMS_P1;PMS_P2;Temp;Humidity;BMP_temperature;BMP_pressure;BME280_temperature;BME280_humidity;BME280_pressure;Samples;Min_cycle;Max_cycle;Signal;HPM_P1;HPM_P2
2021/06/22 00:00:34;;;;;;;5.55;2.60;;;13.50;99.90;;;14.77;82.88;100438.13;6190590;23;20453;-92
2021/06/22 00:03:01;;;;;;;4.93;2.53;;;13.50;99.90;;;14.80;82.78;100428.94;6192066;23;20040;-89
2021/06/22 00:05:31;;;;;;;6.47;2.50;;;13.50;99.90;;;14.84;83.24;100435.38;6218183;23;20039;-89
2021/06/22 00:07:58;;;;;;;3.63;2.53;;;13.50;99.90;;;14.81;83.35;100424.91;6218380;23;20009;-88
2021/06/22 00:10:30;;;;;;;8.90;2.95;;;13.50;99.90;;;14.78;83.08;100418.06;6193788;23;20004;-90
2021/06/22 00:12:58;;;;;;;5.47;2.47;;;13.60;99.90;;;14.83;82.64;100408.47;6195505;23;20009;-90
2021/06/22 00:15:29;;;;;;;3.28;2.33;;;13.50;99.90;;;14.86;82.26;100410.50;6196243;23;20035;-90
2021/06/22 00:17:55;;;;;;;4.40;2.83;;;13.50;99.90;;;14.82;82.64;100401.22;6224977;23;20012;-91
2021/06/22 00:20:23;;;;;;;9.85;3.22;;;13.50;99.90;;;14.87;82.65;100388.78;6230200;23;20020;-90
2021/06/22 00:22:52;;;;;;;6.90;3.05;;;13.60;99.90;;;14.80;82.85;100380.31;6218600;23;20016;-88
2021/06/22 00:25:20;;;;;;;5.32;3.15;;;13.60;99.90;;;14.87;83.17;100389.59;6191408;23;20445;-89
2021/06/22 00:27:47;;;;;;;6.93;2.80;;;13.60;99.90;;;14.92;82.94;100397.66;6189864;23;20059;-89
2021/06/22 00:30:13;;;;;;;7.55;2.80;;;13.70;99.90;;;14.92;82.69;100392.03;6188950;23;20058;-90
2021/06/22 00:32:39;;;;;;;6.85;3.10;;;13.60;99.90;;;14.95;82.20;100382.00;6189916;23;20008;-90
2021/06/22 00:35:08;;;;;;;4.45;2.80;;;13.60;99.90;;;14.89;82.86;100381.59;6189363;23;20024;-91
2021/06/22 00:37:42;;;;;;;5.38;3.55;;;13.60;99.90;;;14.85;83.17;100377.94;6217506;23;20019;-87
2021/06/22 00:40:12;;;;;;;6.35;3.00;;;13.60;99.90;;;14.95;83.37;100390.44;6218165;23;20036;-89
2021/06/22 00:42:47;;;;;;;7.00;3.53;;;13.70;99.90;;;14.98;83.44;100386.84;6218709;23;20008;-90
2021/06/22 00:45:24;;;;;;;8.57;3.85;;;13.70;99.90;;;14.98;83.62;100395.28;6217474;23;20040;-91
2021/06/22 00:47:50;;;;;;;7.15;3.70;;;13.70;99.90;;;15.03;83.21;100403.31;6217107;23;20013;-87
2021/06/22 00:50:16;;;;;;;7.75;3.83;;;13.70;99.90;;;15.10;83.37;100409.81;6220308;23;20533;-88
2021/06/22 00:52:44;;;;;;;8.95;3.40;;;13.80;99.90;;;15.10;83.42;100407.00;6234681;23;20003;-87
2021/06/22 00:55:28;;;;;;;4.00;3.35;;;13.80;99.90;;;15.15;83.25;100406.63;6200066;23;20009;-91
2021/06/22 00:58:08;;;;;;;7.13;3.42;;;13.80;99.90;;;15.12;83.11;100401.75;6217227;23;20359;-91
2021/06/22 01:00:37;;;;;;;7.30;4.22;;;13.80;99.90;;;15.12;83.08;100412.22;6192682;23;20008;-90
2021/06/22 01:03:06;;;;;;;5.45;3.28;;;13.80;99.90;;;15.08;82.55;100403.78;6191808;23;20024;-90
2021/06/22 01:05:33;;;;;;;7.82;3.42;;;13.80;99.90;;;15.17;82.16;100403.41;6191945;23;20015;-91
2021/06/22 01:08:01;;;;;;;6.18;3.25;;;13.80;99.90;;;15.06;82.11;100400.53;6192470;23;20043;-91
2021/06/22 01:10:29;;;;;;;7.60;3.50;;;13.80;99.90;;;15.09;82.08;100405.38;6192297;23;20051;-88
2021/06/22 01:12:57;;;;;;;11.20;4.40;;;13.70;99.90;;;14.97;81.92;100399.28;6192051;23;20011;-90
2021/06/22 01:15:30;;;;;;;11.85;5.15;;;13.80;99.90;;;14.94;82.49;100406.50;6191298;23;20426;-91
2021/06/22 01:18:00;;;;;;;10.13;4.72;;;13.70;99.90;;;14.91;82.88;100404.47;6216094;23;20012;-91
2021/06/22 01:20:47;;;;;;;12.23;4.75;;;13.60;99.90;;;14.91;83.24;100414.91;6190803;23;20013;-91
2021/06/22 01:23:14;;;;;;;12.25;5.28;;;13.60;99.90;;;14.89;83.16;100417.31;6215187;23;20008;-91
2021/06/22 01:25:40;;;;;;;13.00;6.68;;;13.60;99.90;;;14.86;83.46;100415.31;6190186;23;20585;-91
2021/06/22 01:28:07;;;;;;;11.20;7.45;;;13.60;99.90;;;14.87;83.85;100403.63;6190548;23;20044;-91
2021/06/22 01:30:34;;;;;;;16.23;8.52;;;13.60;99.90;;;14.89;84.09;100411.69;6190487;23;20088;-91
2021/06/22 01:33:02;;;;;;;17.92;10.38;;;13.60;99.90;;;14.88;84.03;100410.09;6190112;23;20012;-90
2021/06/22 01:35:28;;;;;;;15.80;10.07;;;13.60;99.90;;;14.84;84.12;100412.06;6190242;23;20046;-90
2021/06/22 01:38:00;;;;;;;15.43;9.82;;;13.50;99.90;;;14.89;84.12;100417.31;6190360;23;20054;-91
2021/06/22 01:40:27;;;;;;;16.48;9.77;;;13.50;99.90;;;14.80;84.54;100408.44;6191010;23;20012;-90
2021/06/22 01:43:01;;;;;;;15.02;8.55;;;13.50;99.90;;;14.74;84.84;100399.53;6190763;23;20013;-89
2021/06/22 01:45:28;;;;;;;11.70;6.97;;;13.50;99.90;;;14.81;84.63;100413.66;6215714;23;20087;-90
2021/06/22 01:47:54;;;;;;;13.38;6.53;;;13.50;99.90;;;14.74;84.18;100400.34;6216738;23;20032;-87
2021/06/22 01:50:20;;;;;;;7.55;4.95;;;13.40;99.90;;;14.73;84.25;100401.56;6191436;23;20009;-90
2021/06/22 01:52:50;;;;;;;8.55;3.92;;;13.50;99.90;;;14.74;83.50;100403.16;6190732;23;20008;-91
2021/06/22 01:55:37;;;;;;;7.10;3.85;;;13.50;99.90;;;14.74;83.19;100402.34;6215417;23;20409;-90
2021/06/22 01:58:08;;;;;;;6.38;3.15;;;13.40;99.90;;;14.72;82.45;100399.16;6189807;23;20031;-90
2021/06/22 02:00:36;;;;;;;8.80;2.30;;;13.50;99.90;;;14.77;81.42;100405.19;6189955;23;20067;-90
2021/06/22 02:03:03;;;;;;;7.65;2.97;;;13.50;99.90;;;14.71;81.64;100397.53;6214900;23;20013;-89
2021/06/22 02:05:30;;;;;;;4.20;2.30;;;13.40;99.90;;;14.71;80.81;100403.97;6189563;23;20471;-91
2021/06/22 02:07:56;;;;;;;5.30;2.30;;;13.50;99.90;;;14.72;80.98;100396.34;6189853;23;20008;-91
2021/06/22 02:10:22;;;;;;;9.80;3.55;;;13.40;99.90;;;14.73;80.78;100400.78;6214610;23;20101;-89
2021/06/22 02:12:48;;;;;;;8.52;2.92;;;13.40;99.90;;;14.72;80.29;100402.75;6190524;23;20005;-90
2021/06/22 02:15:16;;;;;;;8.15;2.63;;;13.50;99.90;;;14.71;80.44;100401.16;6214904;23;20013;-89
2021/06/22 02:17:43;;;;;;;5.90;2.78;;;13.40;99.90;;;14.75;80.62;100396.34;6215809;23;20008;-90
2021/06/22 02:20:11;;;;;;;4.68;2.80;;;13.40;99.90;;;14.82;80.72;100412.47;6215282;23;20012;-90
2021/06/22 02:22:37;;;;;;;9.13;2.95;;;13.50;99.90;;;14.84;80.94;100415.69;6166444;23;20406;-88
2021/06/22 02:25:08;;;;;;;12.02;3.85;;;13.50;99.90;;;14.83;81.01;100430.16;6215969;23;20044;-90
2021/06/22 02:27:35;;;;;;;7.80;3.78;;;13.50;99.90;;;14.83;80.80;100433.78;6191343;23;20012;-88
2021/06/22 02:30:10;;;;;;;8.60;3.67;;;13.40;99.90;;;14.74;81.31;100436.91;6191762;23;20009;-89
2021/06/22 02:32:37;;;;;;;11.00;3.75;;;13.50;99.90;;;14.81;81.07;100447.38;6219003;23;20005;-89
2021/06/22 02:35:08;;;;;;;10.00;3.70;;;13.50;99.90;;;14.82;81.38;100465.06;6215005;23;20059;-88
2021/06/22 02:37:38;;;;;;;8.45;4.50;;;13.40;99.90;;;14.77;81.26;100447.38;6189370;23;20000;-90
2021/06/22 02:40:10;;;;;;;9.88;4.30;;;13.50;99.90;;;14.79;81.75;100444.19;6189009;23;20013;-88
2021/06/22 02:42:36;;;;;;;12.82;4.10;;;13.40;99.90;;;14.80;81.67;100445.81;6188592;23;20086;-89
2021/06/22 02:45:04;;;;;;;8.55;4.18;;;13.50;99.90;;;14.77;81.71;100440.94;6213853;23;20008;-88
2021/06/22 02:47:30;;;;;;;9.23;4.68;;;13.40;99.90;;;14.69;81.87;100439.28;6188924;23;20015;-90
2021/06/22 02:50:06;;;;;;;9.43;4.68;;;13.40;99.90;;;14.72;81.52;100433.69;6188552;23;20000;-89
2021/06/22 02:52:32;;;;;;;16.50;5.47;;;13.40;99.90;;;14.63;81.32;100423.97;6188824;23;20012;-90
2021/06/22 02:54:58;;;;;;;10.73;4.72;;;13.40;99.90;;;14.60;81.35;100442.44;6212843;23;20331;-91
2021/06/22 02:57:24;;;;;;;12.63;4.50;;;13.40;99.90;;;14.69;81.34;100440.09;6188261;23;20016;-89
2021/06/22 02:59:50;;;;;;;7.82;4.40;;;13.40;99.90;;;14.63;81.24;100435.22;6188357;23;20320;-89
2021/06/22 03:02:16;;;;;;;11.38;4.78;;;13.40;99.90;;;14.56;81.05;100424.75;6189053;23;20338;-89
2021/06/22 03:04:42;;;;;;;10.43;5.05;;;13.40;99.90;;;14.68;81.23;100437.66;6213878;23;20012;-89
2021/06/22 03:07:08;;;;;;;9.05;4.72;;;13.40;99.90;;;14.66;81.39;100434.44;6188556;23;20012;-89
2021/06/22 03:09:34;;;;;;;9.85;5.25;;;13.30;99.90;;;14.66;81.48;100428.81;6200095;23;20253;-89
2021/06/22 03:12:00;;;;;;;12.95;5.20;;;13.40;99.90;;;14.66;81.29;100424.00;6201139;23;20457;-90
2021/06/22 03:14:26;;;;;;;16.02;5.30;;;13.40;99.90;;;14.62;81.26;100433.59;6214803;23;20015;-90
2021/06/22 03:16:53;;;;;;;12.60;5.07;;;13.40;99.90;;;14.64;81.71;100446.06;6190003;23;20035;-90
2021/06/22 03:19:46;;;;;;;14.88;6.20;;;13.30;99.90;;;14.49;82.10;100447.16;6215999;23;20009;-90
2021/06/22 03:22:12;;;;;;;14.02;6.03;;;13.30;99.90;;;14.58;81.70;100442.00;6168143;23;20037;-90
2021/06/22 03:24:38;;;;;;;14.13;5.68;;;13.30;99.90;;;14.58;81.62;100439.19;6190401;23;20453;-90
2021/06/22 03:27:06;;;;;;;10.80;5.25;;;13.30;99.90;;;14.59;81.44;100446.44;6219774;23;20268;-91
2021/06/22 03:29:32;;;;;;;15.18;4.93;;;13.30;99.90;;;14.65;81.69;100453.31;6231005;23;20092;-89
2021/06/22 03:32:17;;;;;;;10.80;5.47;;;13.40;99.90;;;14.67;81.59;100458.56;6176363;23;20021;-88
2021/06/22 03:34:43;;;;;;;14.63;4.95;;;13.40;99.90;;;14.64;81.26;100448.88;6190942;23;20062;-90
2021/06/22 03:37:13;;;;;;;8.90;4.60;;;13.40;99.90;;;14.64;81.03;100443.25;6190592;23;20005;-90
2021/06/22 03:39:40;;;;;;;14.32;5.40;;;13.40;99.90;;;14.60;81.62;100450.06;6168639;23;20023;-87
2021/06/22 03:42:09;;;;;;;14.63;5.30;;;13.30;99.90;;;14.71;81.24;100462.19;6193210;23;20087;-87
2021/06/22 03:44:38;;;;;;;11.63;5.15;;;13.30;99.90;;;14.65;81.50;100455.31;6192345;23;20034;-86
2021/06/22 03:47:13;;;;;;;14.77;5.32;;;13.40;99.90;;;14.51;81.94;100450.38;6215929;23;20008;-88
2021/06/22 03:49:43;;;;;;;9.30;5.47;;;13.40;99.90;;;14.53;82.09;100453.63;6193741;23;20016;-90
2021/06/22 03:52:09;;;;;;;11.68;5.75;;;13.30;99.90;;;14.53;82.11;100452.81;6215279;23;20035;-88
2021/06/22 03:54:36;;;;;;;11.55;5.13;;;13.30;99.90;;;14.64;81.97;100450.91;6215271;23;20438;-87
2021/06/22 03:57:15;;;;;;;8.73;4.93;;;13.30;99.90;;;14.57;82.54;100454.47;6190751;23;20438;-87
2021/06/22 03:59:42;;;;;;;12.35;5.80;;;13.40;99.90;;;14.61;82.39;100454.47;6197628;23;20008;-91
2021/06/22 04:02:08;;;;;;;11.82;5.88;;;13.40;99.90;;;14.64;82.43;100459.34;6196040;23;20020;-92
2021/06/22 04:04:34;;;;;;;13.07;6.88;;;13.40;99.90;;;14.60;82.76;100458.50;6196515;23;20068;-90
2021/06/22 04:07:00;;;;;;;12.48;5.47;;;13.40;99.90;;;14.59;82.65;100465.31;6197960;23;20442;-88
2021/06/22 04:09:26;;;;;;;15.18;6.30;;;13.30;99.90;;;14.63;82.65;100464.16;6223905;23;20134;-91
2021/06/22 04:11:55;;;;;;;11.30;5.78;;;13.40;99.90;;;14.68;82.86;100460.16;6196238;23;20015;-90
2021/06/22 04:14:21;;;;;;;13.95;5.78;;;13.40;99.90;;;14.74;82.97;100458.59;6195412;23;20022;-90
2021/06/22 04:16:47;;;;;;;8.98;5.53;;;13.40;99.90;;;14.68;82.78;100454.53;6197495;23;20394;-90
2021/06/22 04:19:13;;;;;;;13.52;6.55;;;13.40;99.90;;;14.72;82.56;100461.81;6220009;23;20004;-91
2021/06/22 04:21:43;;;;;;;20.80;7.07;;;13.50;99.90;;;14.85;82.62;100481.97;6197141;23;20296;-90
2021/06/22 04:24:09;;;;;;;13.73;7.25;;;13.50;99.90;;;14.90;82.83;100487.22;6196962;23;20138;-89
2021/06/22 04:32:00;;;;;;;16.27;8.82;;;13.60;99.90;;;15.01;82.31;100496.53;6224004;23;20529;-91
2021/06/22 04:34:45;;;;;;;14.60;7.13;;;13.60;99.90;;;14.89;82.21;100487.63;6224513;23;20076;-91
2021/06/22 04:46:40;;;;;;;15.07;7.07;;;13.60;99.90;;;15.02;81.54;100475.66;6143707;23;20113;-89
2021/06/22 04:59:58;;;;;;;11.85;6.38;;;13.70;99.90;;;14.95;81.51;100486.06;6161126;23;20028;-88
2021/06/22 05:02:23;;;;;;;17.50;6.70;;;13.70;99.90;;;15.01;81.77;100492.91;6159294;23;20033;-91
2021/06/22 05:05:04;;;;;;;15.95;6.90;;;13.70;99.90;;;15.10;81.77;100491.38;6132269;23;20333;-88
2021/06/22 05:07:32;;;;;;;16.75;7.47;;;13.70;99.90;;;15.08;81.74;100476.09;6107431;23;20428;-87
2021/06/22 05:10:51;;;;;;;;;;;;;;;;;;;;;
2021/06/22 05:13:29;;;;;;;12.30;7.28;;;13.70;99.90;;;14.98;81.06;100466.41;6131073;23;20048;-91
2021/06/22 05:16:15;;;;;;;20.10;7.35;;;13.70;99.90;;;14.82;81.22;100468.69;6100138;23;20308;-90
2021/06/22 05:18:55;;;;;;;10.30;6.78;;;13.60;99.90;;;14.89;81.08;100471.56;6107942;23;20028;-91
2021/06/22 05:30:49;;;;;;;12.27;6.50;;;13.60;99.90;;;15.13;80.81;100504.66;6076797;23;20035;-90
2021/06/22 05:33:19;;;;;;;20.88;8.52;;;13.70;99.90;;;15.07;80.54;100500.59;5960512;24;20013;-87
2021/06/22 05:36:00;;;;;;;18.85;9.02;;;13.80;99.90;;;15.02;80.17;100506.59;6041748;23;20013;-87
2021/06/22 05:38:26;;;;;;;13.18;8.02;;;13.80;99.90;;;15.11;80.26;100498.63;6112534;23;20025;-89
2021/06/22 05:41:27;;;;;;;14.45;9.15;;;13.80;99.90;;;15.07;80.31;100499.78;6109497;23;20005;-88
2021/06/22 06:02:39;;;;;;;15.82;8.43;;;14.30;99.90;;;15.78;76.80;100489.72;5984531;23;20012;-91
2021/06/22 06:11:08;;;;;;;14.98;8.80;;;14.50;99.90;;;16.01;76.11;100535.28;6226912;23;20031;-91
2021/06/22 06:13:59;;;;;;;13.45;8.43;;;14.60;99.90;;;16.12;75.50;100524.81;6105673;23;20014;-92
2021/06/22 06:20:56;;;;;;;16.88;8.63;;;14.80;99.90;;;16.13;75.34;100517.19;6073685;23;20021;-90
2021/06/22 06:27:23;;;;;;;12.75;7.25;;;14.80;99.90;;;16.61;74.03;100537.41;6221489;22;20034;-92
2021/06/22 06:30:00;;;;;;;13.60;8.57;;;15.00;99.90;;;16.57;72.54;100525.31;6198892;23;20100;-91
2021/06/22 06:36:09;;;;;;;14.75;8.25;;;15.30;99.90;;;16.74;71.95;100525.34;6160807;23;20025;-90
2021/06/22 06:38:54;;;;;;;12.23;6.97;;;15.30;99.90;;;16.97;70.50;100522.13;6189371;23;20001;-90
2021/06/22 07:02:42;;;;;;;;;;;;;;;;;;;;;
2021/06/22 08:15:28;;;;;;;11.60;5.00;;;16.40;99.90;;;17.49;64.82;100561.94;6161810;23;20021;-87
2021/06/22 08:17:55;;;;;;;5.68;4.18;;;16.30;99.90;;;17.65;65.03;100560.31;6131995;23;20017;-88
2021/06/22 08:20:47;;;;;;;7.43;4.13;;;16.20;99.90;;;17.82;64.17;100561.44;6157414;23;20009;-88
2021/06/22 08:23:19;;;;;;;7.55;4.18;;;16.30;99.90;;;17.99;64.14;100569.06;6156456;23;20009;-90
2021/06/22 08:25:46;;;;;;;6.53;4.10;;;16.40;99.90;;;18.20;62.90;100574.63;6132873;23;20010;-88
2021/06/22 08:28:14;;;;;;;7.25;3.60;;;16.50;99.90;;;18.24;62.50;100577.41;6132555;23;20013;-89
2021/06/22 08:30:40;;;;;;;10.10;3.83;;;16.60;99.90;;;18.14;62.57;100583.94;6158897;23;20013;-87
2021/06/22 08:33:07;;;;;;;10.98;4.38;;;16.60;99.90;;;18.18;62.51;100584.72;6133162;23;20012;-89
2021/06/22 08:35:36;;;;;;;8.65;4.22;;;16.60;99.90;;;18.21;62.43;100581.06;6156565;23;20025;-87
2021/06/22 08:38:08;;;;;;;8.90;4.28;;;16.60;99.90;;;18.12;63.60;100581.50;6156451;23;20084;-87
2021/06/22 08:40:37;;;;;;;9.00;4.70;;;16.60;99.90;;;18.09;63.08;100576.69;6132236;23;20089;-88
2021/06/22 08:43:03;;;;;;;6.55;4.13;;;16.60;99.90;;;18.20;63.47;100574.63;6133690;23;20064;-88
2021/06/22 08:45:29;;;;;;;12.20;4.60;;;16.60;99.90;;;18.19;63.35;100567.34;6133221;23;20006;-88
2021/06/22 08:47:55;;;;;;;6.85;4.10;;;16.60;99.90;;;18.05;63.40;100577.91;6132840;23;20460;-88
2021/06/22 08:50:28;;;;;;;9.15;3.92;;;16.70;99.90;;;18.23;63.42;100561.69;6135687;23;20077;-90
2021/06/22 08:53:31;;;;;;;8.98;3.35;;;16.70;99.90;;;18.39;63.22;100570.47;6142701;23;20002;-86
2021/06/22 08:55:58;;;;;;;7.03;3.47;;;16.70;99.90;;;18.40;64.06;100578.53;6158584;23;20005;-89
2021/06/22 08:58:24;;;;;;;11.38;4.38;;;16.80;99.90;;;18.44;64.39;100581.34;6159511;23;20010;-87
2021/06/22 09:00:52;;;;;;;10.43;4.90;;;16.80;99.90;;;18.49;63.96;100582.94;6161283;23;20013;-87
2021/06/22 09:03:24;;;;;;;6.40;3.40;;;16.90;99.90;;;18.51;62.73;100591.84;6133827;23;20013;-87
2021/06/22 09:05:54;;;;;;;9.35;4.15;;;16.90;99.90;;;18.46;61.77;100592.25;6161394;23;20014;-88
2021/06/22 09:08:32;;;;;;;9.75;3.88;;;16.90;99.90;;;18.63;62.14;100592.16;6134876;23;20116;-87
2021/06/22 10:37:03;;;;;;;5.72;3.20;;;19.00;99.90;;;20.83;55.67;100593.41;6100744;23;20023;-89
2021/06/22 10:40:00;;;;;;;8.20;3.60;;;19.10;99.90;;;20.87;55.25;100589.28;6075685;23;20014;-89
2021/06/22 10:42:47;;;;;;;8.77;4.00;;;19.10;99.90;;;20.61;54.67;100589.28;6100018;23;20152;-89
2021/06/22 10:45:14;;;;;;;9.38;4.20;;;19.00;99.90;;;20.37;55.54;100582.75;6075707;23;20006;-90
2021/06/22 10:47:43;;;;;;;7.10;3.28;;;18.70;99.90;;;20.16;56.09;100591.50;6074512;23;20010;-89
2021/06/22 10:50:32;;;;;;;6.15;4.00;;;18.60;99.90;;;19.80;57.26;100582.63;6074668;23;20025;-86
2021/06/22 10:53:07;;;;;;;11.60;4.60;;;18.40;99.90;;;19.77;58.12;100589.97;6075808;23;20014;-87
2021/06/22 10:55:45;;;;;;;9.65;3.60;;;18.20;99.90;;;19.83;57.12;100584.63;6075230;23;20007;-88
2021/06/22 10:58:17;;;;;;;8.43;4.15;;;18.30;99.90;;;19.65;57.80;100596.16;6074761;23;20013;-88
2021/06/22 11:00:56;;;;;;;8.15;3.90;;;18.20;99.90;;;19.79;57.43;100593.16;6074404;23;20015;-89
2021/06/22 11:03:28;;;;;;;6.55;3.05;;;18.20;99.90;;;20.02;56.58;100598.16;6074428;23;20021;-88
2021/06/22 11:06:25;;;;;;;8.50;3.15;;;18.30;99.90;;;20.36;56.75;100596.13;6098838;23;20445;-89
2021/06/22 11:08:52;;;;;;;;;;;18.50;99.90;;;20.31;55.78;100596.59;6073709;23;20010;-89
2021/06/22 11:11:23;;;;;;;7.85;3.25;;;18.70;99.90;;;20.35;56.21;100603.03;6075949;23;19985;-88
2021/06/22 11:13:59;;;;;;;6.57;3.25;;;18.70;99.90;;;20.10;57.06;100608.16;6077468;23;20018;-89
2021/06/22 11:16:32;;;;;;;9.02;3.08;;;18.60;99.90;;;20.04;56.61;100609.88;6076424;23;20006;-90
2021/06/22 11:19:07;;;;;;;6.50;3.20;;;18.60;99.90;;;20.20;56.75;100603.59;6078745;23;20038;-86
2021/06/22 11:21:56;;;;;;;8.13;3.58;;;18.60;99.90;;;20.40;55.61;100594.03;6116947;23;20038;-88
2021/06/22 11:24:31;;;;;;;8.95;3.75;;;18.70;99.90;;;20.73;54.38;100594.38;6077531;23;20021;-87
2021/06/22 11:27:03;;;;;;;9.73;3.92;;;18.90;99.90;;;21.08;53.61;100593.81;6100410;23;20321;-87
2021/06/22 11:29:36;;;;;;;9.45;3.75;;;19.20;99.90;;;21.30;53.64;100582.91;6075318;23;20010;-88
2021/06/22 11:32:04;;;;;;;7.70;3.47;;;19.50;99.90;;;21.75;52.12;100588.97;6074730;23;20006;-86
2021/06/22 11:34:50;;;;;;;6.85;3.65;;;19.90;99.90;;;21.73;51.23;100580.88;6100068;23;20093;-89
2021/06/22 11:37:16;;;;;;;7.40;3.08;;;19.90;99.90;;;21.85;51.98;100587.97;6069907;23;20481;-86
2021/06/22 11:40:13;;;;;;;12.00;3.90;;;20.00;99.90;;;21.84;52.42;100589.19;6074853;23;20018;-90
2021/06/22 11:42:43;;;;;;;11.30;4.28;;;20.10;99.90;;;21.29;52.89;100582.09;6096145;23;20077;-88
2021/06/22 11:45:20;;;;;;;7.15;4.32;;;20.00;99.90;;;20.94;53.54;100583.47;6096329;23;20010;-87
2021/06/22 11:47:45;;;;;;;7.35;3.97;;;19.70;99.90;;;20.84;54.87;100577.97;6068845;23;20294;-88
2021/06/22 11:50:11;;;;;;;8.85;3.67;;;19.40;99.90;;;20.45;55.32;100579.38;6068880;23;20106;-88
2021/06/22 11:52:44;;;;;;;8.48;3.60;;;19.10;99.90;;;19.86;57.11;100580.94;6068021;23;20061;-85
2021/06/22 11:55:16;;;;;;;11.18;4.22;;;18.70;99.90;;;19.60;57.97;100573.13;6068776;23;20007;-89
2021/06/22 11:57:56;;;;;;;5.55;3.50;;;18.30;99.90;;;19.58;58.74;100581.25;6094046;23;20062;-88
2021/06/22 12:00:32;;;;;;;11.00;5.68;;;18.10;99.90;;;19.40;59.27;100576.59;6069128;23;20042;-88
2021/06/22 12:03:03;;;;;;;8.35;3.88;;;17.90;99.90;;;19.33;59.08;100589.97;6075653;23;20007;-89
2021/06/22 12:05:34;;;;;;;6.18;3.78;;;17.80;99.90;;;19.46;58.38;100588.25;6072377;23;20106;-87
2021/06/22 12:08:08;;;;;;;8.35;3.95;;;17.90;99.90;;;19.75;59.04;100592.41;6073880;23;20007;-88
2021/06/22 12:10:49;;;;;;;6.78;3.60;;;18.00;99.90;;;20.05;57.82;100585.97;6075347;23;20441;-87
2021/06/22 12:13:36;;;;;;;6.85;3.53;;;18.30;99.90;;;20.43;56.46;100581.84;6073949;23;20003;-89
2021/06/22 12:16:23;;;;;;;7.63;4.00;;;18.70;99.90;;;20.64;55.73;100591.28;6073556;23;20030;-89
2021/06/22 12:19:01;;;;;;;10.98;4.53;;;18.90;99.90;;;20.68;54.46;100584.28;6071673;23;20021;-90
2021/06/22 12:21:31;;;;;;;8.70;4.20;;;19.00;99.90;;;20.63;55.08;100581.16;6095360;23;20102;-89
2021/06/22 12:24:15;;;;;;;10.93;4.10;;;19.00;99.90;;;20.39;57.13;100583.91;6070977;23;20520;-90
2021/06/22 12:26:46;;;;;;;10.75;4.10;;;18.80;99.90;;;20.22;57.09;100584.13;6071924;23;20007;-89
2021/06/22 12:29:32;;;;;;;6.25;3.45;;;18.70;99.90;;;20.26;56.66;100577.19;6096074;23;20017;-88
2021/06/22 12:32:08;;;;;;;9.45;4.10;;;18.60;99.90;;;20.20;57.66;100593.06;6074536;23;20098;-87
2021/06/22 12:34:41;;;;;;;10.60;4.40;;;18.60;99.90;;;19.91;57.84;100584.09;6071993;23;20050;-90
2021/06/22 12:37:24;;;;;;;8.35;4.55;;;18.40;99.90;;;19.78;58.56;100593.56;6095491;23;20386;-88
2021/06/22 12:39:50;;;;;;;6.88;4.18;;;18.30;99.90;;;19.79;58.83;100589.53;6071449;23;20335;-89
2021/06/22 12:42:22;;;;;;;10.45;4.03;;;18.20;99.90;;;19.70;59.61;100584.38;6071157;23;20101;-87
2021/06/22 12:44:49;;;;;;;6.70;4.00;;;18.20;99.90;;;19.78;59.47;100585.06;6095356;23;20297;-87
2021/06/22 12:47:15;;;;;;;4.40;3.40;;;18.20;99.90;;;19.62;59.63;100582.03;6097421;23;20022;-89
2021/06/22 12:49:45;;;;;;;8.05;3.63;;;18.10;99.90;;;19.71;59.23;100591.66;6074990;23;20017;-86
2021/06/22 12:52:13;;;;;;;6.53;3.50;;;18.10;99.90;;;19.52;58.85;100589.44;6074291;23;20035;-85
2021/06/22 12:54:40;;;;;;;5.80;3.03;;;18.00;99.90;;;19.55;59.56;100588.59;6071915;23;20010;-91
2021/06/22 12:57:54;;;;;;;9.65;3.97;;;18.00;99.90;;;19.58;59.71;100590.56;6073303;23;20007;-90
2021/06/22 13:00:47;;;;;;;11.52;4.38;;;18.00;99.90;;;19.59;58.56;100592.16;6026168;23;20070;-89
2021/06/22 13:03:20;;;;;;;8.27;3.72;;;18.00;99.90;;;19.64;58.95;100591.72;6067940;23;20038;-88
2021/06/22 13:05:54;;;;;;;9.68;3.75;;;18.00;99.90;;;19.67;58.61;100590.06;6097151;23;20014;-90
2021/06/22 13:08:24;;;;;;;6.72;3.50;;;18.00;99.90;;;19.87;58.75;100589.00;6094613;23;20010;-90
2021/06/22 13:10:55;;;;;;;6.40;3.58;;;18.10;99.90;;;20.15;58.00;100587.88;6071484;23;20393;-90
2021/06/22 13:13:30;;;;;;;5.60;3.65;;;18.40;99.90;;;20.31;55.90;100578.78;6071115;23;20460;-89
2021/06/22 13:16:15;;;;;;;7.53;3.60;;;18.60;99.90;;;20.28;56.37;100579.63;6069193;23;20338;-87
2021/06/22 13:19:06;;;;;;;10.30;4.30;;;18.60;99.90;;;20.21;56.42;100589.00;6069339;23;20007;-89
2021/06/22 13:22:08;;;;;;;5.55;3.20;;;18.60;99.90;;;20.28;56.88;100586.09;6070674;23;20007;-85
2021/06/22 13:24:43;;;;;;;7.22;3.53;;;18.60;99.90;;;20.40;57.19;100593.22;6014513;23;20011;-88
2021/06/22 13:27:34;;;;;;;9.27;4.47;;;18.70;99.90;;;20.53;55.26;100591.44;6065975;23;20018;-87
2021/06/22 13:30:17;;;;;;;9.23;3.30;;;18.90;99.90;;;20.44;54.56;100594.81;6070722;23;20087;-87
2021/06/22 13:32:53;;;;;;;8.85;3.85;;;18.90;99.90;;;20.42;55.69;100602.91;6069448;23;20082;-88
2021/06/22 13:35:40;;;;;;;10.40;3.30;;;18.80;99.90;;;20.47;55.92;100602.47;6096220;23;20031;-87
2021/06/22 13:38:22;;;;;;;8.50;3.83;;;18.80;99.90;;;20.56;55.54;100604.75;6100272;23;20468;-87
2021/06/22 13:40:56;;;;;;;10.60;3.85;;;19.00;99.90;;;20.63;55.00;100606.69;6098490;23;20407;-89
2021/06/22 13:43:43;;;;;;;8.17;3.97;;;19.10;99.90;;;20.74;55.10;100608.13;6084556;23;20006;-84
2021/06/22 13:46:22;;;;;;;7.60;3.60;;;19.20;99.90;;;20.96;55.29;100605.78;6114577;23;20242;-87
2021/06/22 13:48:55;;;;;;;9.68;4.10;;;19.20;99.90;;;20.86;55.57;100601.88;6077719;23;20483;-87
2021/06/22 13:51:32;;;;;;;8.05;4.05;;;19.20;99.90;;;20.54;56.35;100601.56;6099989;23;20007;-88
2021/06/22 13:54:12;;;;;;;7.90;4.10;;;19.00;99.90;;;20.38;56.53;100601.38;6075926;23;20033;-89
2021/06/22 14:14:41;;;;;;;8.45;3.72;;;18.10;99.90;;;19.65;57.78;100618.81;6182240;23;20120;-84
2021/06/22 14:17:07;;;;;;;7.95;3.50;;;18.00;99.90;;;19.71;58.27;100617.16;6174533;23;20530;-89
2021/06/22 14:19:34;;;;;;;6.53;4.00;;;18.10;99.90;;;19.74;57.62;100610.63;6160771;23;19998;-90
2021/06/22 14:22:00;;;;;;;7.03;4.15;;;18.10;99.90;;;19.77;59.40;100611.81;6157893;23;20013;-90
2021/06/22 14:24:27;;;;;;;12.52;3.90;;;18.20;99.90;;;19.64;59.17;100620.06;6132736;23;20037;-90
2021/06/22 14:26:53;;;;;;;7.82;3.80;;;18.10;99.90;;;19.62;58.29;100628.16;6157805;23;20089;-91
2021/06/22 14:29:19;;;;;;;8.07;3.20;;;18.00;99.90;;;19.46;59.07;100625.88;6157409;23;20062;-91
2021/06/22 14:31:46;;;;;;;8.38;3.67;;;18.00;99.90;;;19.36;59.01;100635.25;6158766;23;20006;-89
2021/06/22 14:34:15;;;;;;;6.63;3.25;;;17.90;99.90;;;19.22;60.65;100628.91;6160704;23;20016;-88
2021/06/22 14:36:41;;;;;;;9.15;3.30;;;17.80;99.90;;;19.11;63.21;100631.81;6136621;23;20069;-88
2021/06/22 14:39:09;;;;;;;10.32;4.30;;;17.70;99.90;;;19.05;63.96;100639.16;6161471;23;20006;-87
2021/06/22 14:41:35;;;;;;;9.10;3.72;;;17.60;99.90;;;18.90;65.05;100634.81;6161931;23;20009;-89
2021/06/22 14:44:06;;;;;;;10.80;4.68;;;17.40;99.90;;;18.70;66.81;100640.22;6162036;23;20092;-88
2021/06/22 14:46:35;;;;;;;6.70;3.70;;;17.30;99.90;;;18.59;67.85;100639.47;6159473;23;20025;-87
2021/06/22 14:49:01;;;;;;;7.53;4.28;;;17.20;99.90;;;18.56;68.79;100643.09;6158745;23;20009;-88
2021/06/22 14:51:27;;;;;;;9.93;4.80;;;17.10;99.90;;;18.45;68.60;100631.03;6133714;23;20013;-88
2021/06/22 14:53:53;;;;;;;7.18;4.20;;;17.00;99.90;;;18.48;67.87;100627.38;6157033;23;20020;-87
2021/06/22 14:56:19;;;;;;;10.00;4.15;;;17.00;99.90;;;18.47;67.91;100633.44;6156403;23;20002;-89
2021/06/22 14:58:45;;;;;;;9.23;4.47;;;17.00;99.90;;;18.55;69.57;100637.88;6154668;23;20055;-87
2021/06/22 15:01:11;;;;;;;9.98;4.95;;;17.00;99.90;;;18.62;69.87;100637.84;6158182;23;20016;-85